createdAt,value
2022-08-10T00:01:52.294Z,101977.00
2022-08-10T00:04:24.665Z,101978.20
2022-08-10T00:06:54.309Z,101980.20
2022-08-10T00:09:23.921Z,101980.64
2022-08-10T00:11:51.869Z,101983.30
2022-08-10T00:14:19.859Z,101984.37
2022-08-10T00:16:47.832Z,101988.55
2022-08-10T00:19:16.581Z,101987.52
2022-08-10T00:21:47.227Z,101988.24
2022-08-10T00:24:15.231Z,101990.63
2022-08-10T00:27:52.986Z,101990.90
2022-08-10T00:29:31.644Z,101991.91
2022-08-10T00:31:59.811Z,101992.85
2022-08-10T00:34:29.866Z,101993.47
2022-08-10T00:36:58.120Z,101994.52
2022-08-10T00:39:27.576Z,101991.60
2022-08-10T00:42:06.517Z,101990.30
2022-08-10T00:44:37.423Z,101986.41
2022-08-10T00:47:06.883Z,101986.58
2022-08-10T00:49:43.538Z,101984.67
2022-08-10T00:52:14.413Z,101987.53
2022-08-10T00:54:43.474Z,101985.83
2022-08-10T00:57:15.929Z,101983.39
2022-08-10T00:59:58.468Z,101980.61
2022-08-10T01:02:30.907Z,101974.52
2022-08-10T01:05:07.868Z,101977.24
2022-08-10T01:08:01.339Z,101975.60
2022-08-10T01:10:29.158Z,101976.48
2022-08-10T01:13:01.231Z,101979.70
2022-08-10T01:15:36.913Z,101979.70
2022-08-10T01:18:23.646Z,101978.16
2022-08-10T01:21:25.472Z,101979.33
2022-08-10T01:23:59.341Z,101979.70
2022-08-10T01:27:04.602Z,101980.08
2022-08-10T01:29:59.857Z,101976.80
2022-08-10T01:32:47.986Z,101977.54
2022-08-10T01:35:24.644Z,101979.13
2022-08-10T01:38:06.680Z,101977.03
2022-08-10T01:40:38.685Z,101976.48
2022-08-10T01:43:11.089Z,101977.72
2022-08-10T01:45:44.966Z,101974.85
2022-08-10T01:48:33.316Z,101976.34
2022-08-10T01:51:17.969Z,101977.89
2022-08-10T01:53:53.441Z,101970.90
2022-08-10T01:56:24.681Z,101978.12
2022-08-10T01:59:07.726Z,101981.10
2022-08-10T02:01:39.561Z,101981.64
2022-08-10T02:04:10.892Z,101978.79
2022-08-10T02:06:43.500Z,101979.65
2022-08-10T02:09:19.089Z,101978.91
2022-08-10T02:12:05.180Z,101977.70
2022-08-10T02:14:53.489Z,101976.01
2022-08-10T02:17:59.126Z,101975.98
2022-08-10T02:20:18.710Z,101974.23
2022-08-10T02:22:52.155Z,101975.11
2022-08-10T02:25:41.774Z,101972.12
2022-08-10T02:28:30.104Z,101974.05
2022-08-10T02:31:06.300Z,101974.15
2022-08-10T02:33:38.058Z,101970.19
2022-08-10T02:36:10.354Z,101970.80
2022-08-10T02:38:59.422Z,101970.55
2022-08-10T02:45:13.075Z,101972.99
2022-08-10T02:45:25.766Z,101974.91
2022-08-10T02:48:20.021Z,101975.41
2022-08-10T02:51:00.069Z,101975.77
2022-08-10T02:53:56.531Z,101978.59
2022-08-10T02:56:28.811Z,101980.30
2022-08-10T02:59:11.836Z,101982.75
2022-08-10T03:01:45.002Z,101979.81
2022-08-10T03:04:20.963Z,101983.46
2022-08-10T03:07:12.179Z,101983.16
2022-08-10T03:09:41.690Z,101983.20
2022-08-10T03:12:36.419Z,101981.41
2022-08-10T03:15:01.597Z,101980.08
2022-08-10T03:17:30.385Z,101980.52
2022-08-10T03:20:33.463Z,101980.95
2022-08-10T03:22:51.870Z,101983.64
2022-08-10T03:25:22.288Z,101986.74
2022-08-10T03:27:50.769Z,101992.48
2022-08-10T03:30:27.422Z,101991.81
2022-08-10T03:33:05.442Z,101991.83
2022-08-10T03:35:33.794Z,101992.79
2022-08-10T03:38:01.899Z,101994.54
2022-08-10T03:40:45.798Z,101996.90
2022-08-10T03:43:21.665Z,101995.75
2022-08-10T03:45:56.471Z,101998.16
2022-08-10T03:48:44.716Z,101998.36
2022-08-10T03:51:16.888Z,101991.73
2022-08-10T03:54:04.368Z,101995.54
2022-08-10T03:56:38.960Z,101998.20
2022-08-10T03:59:15.131Z,102004.60
2022-08-10T04:02:46.139Z,102001.92
2022-08-10T04:04:33.626Z,102003.65
2022-08-10T04:07:02.705Z,102006.95
2022-08-10T04:09:54.168Z,102007.80
2022-08-10T04:12:21.286Z,102004.84
2022-08-10T04:14:51.988Z,102010.37
2022-08-10T04:18:03.253Z,102008.32
2022-08-10T04:20:20.476Z,102007.76
2022-08-10T04:22:52.192Z,102007.87
2022-08-10T04:25:21.469Z,102009.98
2022-08-10T04:27:50.255Z,102008.15
2022-08-10T04:30:18.680Z,102005.84
2022-08-10T04:32:50.172Z,102012.95
2022-08-10T04:35:20.814Z,102013.40
2022-08-10T04:37:51.240Z,102010.58
2022-08-10T04:40:29.056Z,102009.39
2022-08-10T04:43:11.268Z,102014.18
2022-08-10T04:45:48.894Z,102012.00
2022-08-10T04:48:39.955Z,102014.11
2022-08-10T04:51:18.436Z,102015.33
2022-08-10T04:54:03.793Z,102017.10
2022-08-10T04:56:39.716Z,102023.23
2022-08-10T04:59:09.521Z,102023.96
2022-08-10T05:02:30.001Z,102025.45
2022-08-10T05:04:34.973Z,102023.52
2022-08-10T05:07:10.763Z,102027.21
2022-08-10T05:10:01.423Z,102030.47
2022-08-10T05:12:28.070Z,102030.27
2022-08-10T05:14:56.420Z,102033.39
2022-08-10T05:17:24.257Z,102036.23
2022-08-10T05:20:01.503Z,102040.73
2022-08-10T05:22:41.787Z,102038.81
2022-08-10T05:25:15.054Z,102039.02
2022-08-10T05:27:43.916Z,102040.81
2022-08-10T05:30:19.778Z,102041.41
2022-08-10T05:32:58.516Z,102040.29
2022-08-10T05:35:56.568Z,102036.39
2022-08-10T05:38:18.433Z,102039.77
2022-08-10T05:40:48.062Z,102042.55
2022-08-10T05:43:22.311Z,102042.15
2022-08-10T05:46:19.387Z,102040.38
2022-08-10T05:48:59.651Z,102041.38
2022-08-10T05:51:30.465Z,102046.49
2022-08-10T05:54:04.525Z,102044.60
2022-08-10T05:56:55.099Z,102042.23
2022-08-10T06:00:34.922Z,102045.94
2022-08-10T06:02:35.042Z,102046.31
2022-08-10T06:05:06.724Z,102049.12
2022-08-10T06:07:38.557Z,102051.10
2022-08-10T06:10:10.431Z,102052.95
2022-08-10T06:12:54.239Z,102055.23
2022-08-10T06:15:52.149Z,102056.00
2022-08-10T06:18:16.902Z,102054.56
2022-08-10T06:20:46.376Z,102057.49
2022-08-10T06:23:14.621Z,102054.23
2022-08-10T06:26:11.502Z,102054.59
2022-08-10T06:28:35.317Z,102056.52
2022-08-10T06:31:05.818Z,102058.24
2022-08-10T06:33:37.446Z,102061.23
2022-08-10T06:36:08.280Z,102061.84
2022-08-10T06:38:39.702Z,102059.71
2022-08-10T06:41:19.566Z,102064.45
2022-08-10T06:43:56.054Z,102065.23
2022-08-10T06:46:25.701Z,102067.79
2022-08-10T06:48:59.233Z,102067.16
2022-08-10T06:51:30.818Z,102064.80
2022-08-10T06:54:02.966Z,102065.42
2022-08-10T06:56:36.806Z,102062.81
2022-08-10T06:59:22.020Z,102066.06
2022-08-10T07:01:57.563Z,102062.13
2022-08-10T07:04:33.907Z,102068.30
2022-08-10T07:07:06.632Z,102065.88
2022-08-10T07:09:40.188Z,102064.96
2022-08-10T07:12:09.679Z,102060.54
2022-08-10T07:14:40.725Z,102063.84
2022-08-10T07:17:15.564Z,102062.56
2022-08-10T07:19:52.423Z,102060.39
2022-08-10T07:23:27.212Z,102058.66
2022-08-10T07:25:15.249Z,102054.13
2022-08-10T07:27:58.588Z,102054.77
2022-08-10T07:30:32.227Z,102049.16
2022-08-10T07:33:01.678Z,102049.34
2022-08-10T07:35:41.492Z,102050.79
2022-08-10T07:38:22.874Z,102052.52
2022-08-10T07:40:53.211Z,102054.81
2022-08-10T07:43:24.957Z,102055.14
2022-08-10T07:45:53.076Z,102053.61
2022-08-10T07:48:27.842Z,102054.73
2022-08-10T07:50:59.537Z,102055.08
2022-08-10T07:53:32.694Z,102053.83
2022-08-10T07:56:13.220Z,102055.98
2022-08-10T07:58:57.711Z,102055.81
2022-08-10T08:01:31.908Z,102054.24
2022-08-10T08:04:11.378Z,102054.84
2022-08-10T08:06:42.522Z,102058.04
2022-08-10T08:09:11.276Z,102058.95
2022-08-10T08:11:42.587Z,102060.73
2022-08-10T08:14:13.101Z,102061.91
2022-08-10T08:16:44.599Z,102056.45
2022-08-10T08:19:37.596Z,102053.96
2022-08-10T08:24:07.809Z,102055.39
2022-08-10T08:24:52.615Z,102052.90
2022-08-10T08:27:21.732Z,102049.17
2022-08-10T08:29:51.355Z,102047.04
2022-08-10T08:32:23.051Z,102047.39
2022-08-10T08:35:02.525Z,102044.18
2022-08-10T08:38:30.351Z,102040.79
2022-08-10T08:40:32.893Z,102040.80
2022-08-10T08:43:12.329Z,102035.81
2022-08-10T08:45:48.215Z,102035.45
2022-08-10T08:50:05.278Z,102037.05
2022-08-10T08:52:24.970Z,102039.71
2022-08-10T08:56:03.922Z,102036.15
2022-08-10T08:58:17.742Z,102033.31
2022-08-10T09:01:23.225Z,102041.14
2022-08-10T09:04:21.559Z,102037.04
2022-08-10T09:08:01.188Z,102034.73
2022-08-10T09:10:58.478Z,102033.84
2022-08-10T09:13:41.375Z,102035.25
2022-08-10T09:16:43.193Z,102031.52
2022-08-10T09:19:35.434Z,102033.48
2022-08-10T09:22:19.468Z,102026.90
2022-08-10T09:25:02.850Z,102024.75
2022-08-10T09:27:43.524Z,102026.30
2022-08-10T09:30:18.520Z,102024.66
2022-08-10T09:36:24.974Z,102027.43
2022-08-10T09:36:29.580Z,102029.89
2022-08-10T09:39:01.189Z,102019.73
2022-08-10T09:41:47.837Z,102017.34
2022-08-10T09:44:57.209Z,102022.26
2022-08-10T09:48:01.573Z,102018.34
2022-08-10T09:51:09.328Z,102010.27
2022-08-10T09:53:33.158Z,102010.06
2022-08-10T09:56:28.530Z,102011.25
2022-08-10T09:59:26.715Z,102007.79
2022-08-10T10:02:16.342Z,102007.16
2022-08-10T10:04:56.162Z,102001.64
2022-08-10T10:07:27.041Z,102000.83
2022-08-10T10:10:17.153Z,101997.98
2022-08-10T10:13:06.174Z,101995.88
2022-08-10T10:15:40.713Z,101990.66
2022-08-10T10:18:44.273Z,101987.91
2022-08-10T10:21:54.258Z,101987.59
2022-08-10T10:24:25.089Z,101983.41
2022-08-10T10:27:25.616Z,101972.38
2022-08-10T10:30:03.735Z,101968.72
2022-08-10T10:33:13.074Z,101968.65
2022-08-10T10:35:52.383Z,101962.55
2022-08-10T10:38:26.879Z,101964.00
2022-08-10T10:41:16.901Z,101963.08
2022-08-10T10:43:44.565Z,101960.83
2022-08-10T10:46:15.237Z,101963.23
2022-08-10T10:49:03.822Z,101961.50
2022-08-10T10:51:45.107Z,101957.20
2022-08-10T10:54:40.614Z,101954.31
2022-08-10T10:57:58.857Z,101956.70
2022-08-10T11:00:22.116Z,101955.27
2022-08-10T11:03:30.238Z,101953.00
2022-08-10T11:06:09.598Z,101955.79
2022-08-10T11:08:43.846Z,101955.33
2022-08-10T11:12:00.373Z,101958.45
2022-08-10T11:14:33.357Z,101955.10
2022-08-10T11:17:31.113Z,101942.48
2022-08-10T11:20:04.801Z,101942.06
2022-08-10T11:22:51.341Z,101947.09
2022-08-10T11:25:22.890Z,101948.77
2022-08-10T11:28:21.306Z,101942.36
2022-08-10T11:30:55.052Z,101937.46
2022-08-10T11:34:04.019Z,101937.99
2022-08-10T11:36:37.031Z,101940.11
2022-08-10T11:39:35.094Z,101939.98
2022-08-10T11:42:26.614Z,101942.39
2022-08-10T11:45:10.301Z,101938.52
2022-08-10T11:47:46.525Z,101933.54
2022-08-10T11:50:25.413Z,101929.95
2022-08-10T11:53:22.054Z,101925.90
2022-08-10T11:55:56.236Z,101924.27
2022-08-10T11:58:47.506Z,101924.48
2022-08-10T12:01:20.795Z,101924.45
2022-08-10T12:03:50.104Z,101925.57
2022-08-10T12:06:33.994Z,101922.70
2022-08-10T12:10:10.084Z,101919.23
2022-08-10T12:12:01.167Z,101917.89
2022-08-10T12:14:34.727Z,101910.14
2022-08-10T12:17:08.228Z,101904.83
2022-08-10T12:20:04.040Z,101905.08
2022-08-10T12:22:38.796Z,101901.54
2022-08-10T12:25:11.872Z,101896.23
2022-08-10T12:28:07.445Z,101901.66
2022-08-10T12:30:40.747Z,101899.90
2022-08-10T12:33:23.120Z,101904.65
2022-08-10T12:36:18.559Z,101902.17
2022-08-10T12:39:06.973Z,101901.35
2022-08-10T12:41:43.669Z,101904.27
2022-08-10T12:44:18.346Z,101902.65
2022-08-10T12:47:27.254Z,101895.52
2022-08-10T12:50:30.340Z,101892.70
2022-08-10T12:53:18.811Z,101881.31
2022-08-10T12:55:49.863Z,101877.08
2022-08-10T12:59:00.248Z,101871.95
2022-08-10T13:01:17.245Z,101870.10
2022-08-10T13:04:22.711Z,101867.70
2022-08-10T13:06:49.965Z,101867.17
2022-08-10T13:09:25.175Z,101862.07
2022-08-10T13:12:36.432Z,101860.96
2022-08-10T13:15:45.023Z,101859.25
2022-08-10T13:18:17.870Z,101856.11
2022-08-10T13:20:52.784Z,101852.02
2022-08-10T13:23:30.021Z,101852.93
2022-08-10T13:26:00.924Z,101844.27
2022-08-10T13:28:45.581Z,101845.37
2022-08-10T13:32:03.224Z,101842.91
2022-08-10T13:34:42.371Z,101838.45
2022-08-10T13:37:13.682Z,101839.11
2022-08-10T13:39:59.441Z,101836.69
2022-08-10T13:42:33.900Z,101833.15
2022-08-10T13:45:15.512Z,101831.80
2022-08-10T13:47:48.712Z,101834.70
2022-08-10T13:50:33.691Z,101835.64
2022-08-10T13:53:15.119Z,101830.77
2022-08-10T13:55:55.194Z,101830.46
2022-08-10T13:58:31.796Z,101826.03
2022-08-10T14:01:01.771Z,101822.01
2022-08-10T14:03:36.251Z,101821.53
2022-08-10T14:06:06.947Z,101815.51
2022-08-10T14:08:38.023Z,101810.95
2022-08-10T14:11:12.369Z,101810.75
2022-08-10T14:13:45.549Z,101807.45
2022-08-10T14:16:13.765Z,101805.56
2022-08-10T14:18:45.094Z,101801.73
2022-08-10T14:21:14.851Z,101797.23
2022-08-10T14:23:52.946Z,101792.09
2022-08-10T14:26:29.128Z,101789.96
2022-08-10T14:29:10.795Z,101791.72
2022-08-10T14:32:01.499Z,101787.92
2022-08-10T14:36:15.458Z,101786.80
2022-08-10T14:37:37.617Z,101785.08
2022-08-10T14:40:15.833Z,101786.98
2022-08-10T14:42:51.442Z,101788.55
2022-08-10T14:45:26.496Z,101783.84
2022-08-10T14:48:01.204Z,101781.42
2022-08-10T14:50:33.501Z,101780.39
2022-08-10T14:53:20.208Z,101782.20
2022-08-10T14:56:02.317Z,101783.50
2022-08-10T14:58:35.638Z,101779.48
2022-08-10T15:01:08.218Z,101776.70
2022-08-10T15:03:59.202Z,101774.04
2022-08-10T15:06:32.186Z,101773.69
2022-08-10T15:09:18.807Z,101772.11
2022-08-10T15:12:15.402Z,101770.76
2022-08-10T15:14:45.069Z,101764.60
2022-08-10T15:17:35.181Z,101767.71
2022-08-10T15:20:24.956Z,101763.19
2022-08-10T15:23:03.924Z,101760.09
2022-08-10T15:25:36.767Z,101760.12
2022-08-10T15:28:08.272Z,101761.61
2022-08-10T15:30:43.857Z,101761.64
2022-08-10T15:33:59.498Z,101759.52
2022-08-10T15:37:02.348Z,101760.41
2022-08-10T15:40:21.328Z,101760.09
2022-08-10T15:42:55.266Z,101754.60
2022-08-10T15:45:26.570Z,101748.63
2022-08-10T15:48:03.181Z,101750.64
2022-08-10T15:50:40.109Z,101748.75
2022-08-10T15:53:49.196Z,101746.35
2022-08-10T15:56:30.238Z,101744.98
2022-08-10T15:59:24.980Z,101745.98
2022-08-10T16:02:04.513Z,101742.02
2022-08-10T16:04:59.610Z,101741.13
2022-08-10T16:07:49.062Z,101741.73
2022-08-10T16:10:28.235Z,101738.20
2022-08-10T16:13:50.858Z,101739.23
2022-08-10T16:16:03.036Z,101739.83
2022-08-10T16:18:34.613Z,101738.10
2022-08-10T16:21:06.801Z,101733.29
2022-08-10T16:23:41.015Z,101732.94
2022-08-10T16:26:14.810Z,101733.35
2022-08-10T16:28:58.070Z,101734.80
2022-08-10T16:31:29.296Z,101733.33
2022-08-10T16:34:00.333Z,101734.89
2022-08-10T16:36:43.061Z,101738.14
2022-08-10T16:39:56.965Z,101736.92
2022-08-10T16:42:16.623Z,101730.56
2022-08-10T16:45:01.737Z,101731.02
2022-08-10T16:47:32.262Z,101733.08
2022-08-10T16:50:09.583Z,101733.29
2022-08-10T16:52:39.770Z,101730.17
2022-08-10T16:55:23.933Z,101728.46
2022-08-10T16:58:04.995Z,101725.84
2022-08-10T17:00:34.277Z,101727.30
2022-08-10T17:03:22.387Z,101724.45
2022-08-10T17:06:01.499Z,101730.20
2022-08-10T17:08:48.078Z,101725.21
2022-08-10T17:11:19.242Z,101726.83
2022-08-10T17:13:47.979Z,101730.93
2022-08-10T17:16:17.578Z,101727.54
2022-08-10T17:18:48.332Z,101726.29
2022-08-10T17:21:25.767Z,101726.48
2022-08-10T17:23:58.098Z,101727.56
2022-08-10T17:26:37.565Z,101730.08
2022-08-10T17:29:59.098Z,101727.45
2022-08-10T17:32:28.251Z,101723.20
2022-08-10T17:35:01.145Z,101721.79
2022-08-10T17:37:35.004Z,101724.13
2022-08-10T17:40:09.136Z,101724.88
2022-08-10T17:42:39.946Z,101725.61
2022-08-10T17:45:45.977Z,101725.10
2022-08-10T17:48:08.104Z,101728.16
2022-08-10T17:50:40.842Z,101730.86
2022-08-10T17:53:16.231Z,101731.63
2022-08-10T17:55:48.322Z,101731.64
2022-08-10T17:58:21.902Z,101733.60
2022-08-10T18:01:40.293Z,101735.41
2022-08-10T18:04:02.232Z,101737.08
2022-08-10T18:06:31.400Z,101736.77
2022-08-10T18:09:03.893Z,101738.22
2022-08-10T18:11:34.945Z,101737.19
2022-08-10T18:14:06.186Z,101738.81
2022-08-10T18:16:35.103Z,101741.69
2022-08-10T18:19:13.606Z,101741.02
2022-08-10T18:21:44.357Z,101745.66
2022-08-10T18:24:20.197Z,101746.72
2022-08-10T18:26:51.877Z,101747.63
2022-08-10T18:29:24.235Z,101749.60
2022-08-10T18:32:01.852Z,101746.41
2022-08-10T18:34:31.802Z,101744.48
2022-08-10T18:37:00.843Z,101748.75
2022-08-10T18:39:34.180Z,101750.72
2022-08-10T18:42:11.796Z,101748.77
2022-08-10T18:44:48.184Z,101749.84
2022-08-10T18:47:20.275Z,101755.54
2022-08-10T18:50:00.886Z,101763.18
2022-08-10T18:52:32.165Z,101764.61
2022-08-10T18:55:14.184Z,101766.55
2022-08-10T18:58:18.369Z,101766.89
2022-08-10T19:01:01.095Z,101768.15
2022-08-10T19:03:54.178Z,101770.10
2022-08-10T19:06:37.778Z,101774.00
2022-08-10T19:09:47.539Z,101778.25
2022-08-10T19:12:36.630Z,101781.09
2022-08-10T19:15:19.723Z,101779.48
2022-08-10T19:18:29.346Z,101778.75
2022-08-10T19:21:15.387Z,101776.78
2022-08-10T19:24:01.791Z,101783.34
2022-08-10T19:26:41.624Z,101786.67
2022-08-10T19:30:08.343Z,101784.33
2022-08-10T19:32:31.561Z,101791.04
2022-08-10T19:35:25.146Z,101790.83
2022-08-10T19:38:33.164Z,101789.55
2022-08-10T19:41:32.130Z,101786.34
2022-08-10T19:44:27.577Z,101785.91
2022-08-10T19:47:21.107Z,101789.08
2022-08-10T19:49:59.733Z,101785.11
2022-08-10T19:52:41.358Z,101791.29
2022-08-10T19:55:15.792Z,101787.70
2022-08-10T19:58:26.624Z,101788.33
2022-08-10T20:01:01.837Z,101786.35
2022-08-10T20:03:39.910Z,101791.81
2022-08-10T20:06:18.788Z,101794.07
2022-08-10T20:09:10.829Z,101795.28
2022-08-10T20:11:59.086Z,101796.80
2022-08-10T20:14:46.880Z,101797.98
2022-08-10T20:17:51.590Z,101793.95
2022-08-10T20:20:34.541Z,101798.65
2022-08-10T20:23:16.322Z,101805.11
2022-08-10T20:25:51.150Z,101804.12
2022-08-10T20:28:32.604Z,101802.61
2022-08-10T20:31:19.789Z,101803.92
2022-08-10T20:34:01.517Z,101806.48
2022-08-10T20:49:22.484Z,101800.33
2022-08-10T20:51:57.956Z,101802.36
2022-08-10T20:54:36.724Z,101806.98
2022-08-10T20:57:54.856Z,101808.38
2022-08-10T21:00:42.665Z,101807.49
2022-08-10T21:03:31.431Z,101807.40
2022-08-10T21:06:41.023Z,101806.61
2022-08-10T21:09:31.509Z,101803.35
2022-08-10T21:12:15.629Z,101800.44
2022-08-10T21:15:07.335Z,101802.65
2022-08-10T21:17:51.142Z,101804.50
2022-08-10T21:20:39.741Z,101800.30
2022-08-10T21:23:16.841Z,101803.73
2022-08-10T21:26:13.917Z,101808.74
2022-08-10T21:29:00.286Z,101807.53
2022-08-10T21:31:51.713Z,101803.54
2022-08-10T21:34:54.250Z,101805.12
2022-08-10T21:37:57.023Z,101802.34
2022-08-10T21:40:37.729Z,101801.70
2022-08-10T21:43:48.700Z,101801.29
2022-08-10T21:47:02.902Z,101803.67
2022-08-10T21:50:16.204Z,101803.75
2022-08-10T21:53:22.546Z,101798.45
2022-08-10T21:56:46.241Z,101800.33
2022-08-10T21:59:56.565Z,101798.63
2022-08-10T22:02:50.188Z,101800.65
2022-08-10T22:05:47.700Z,101801.58
2022-08-10T22:08:38.568Z,101799.16
2022-08-10T22:11:28.631Z,101793.73
2022-08-10T22:14:16.113Z,101790.60
2022-08-10T22:18:00.701Z,101794.33
2022-08-10T22:20:27.112Z,101792.92
2022-08-10T22:23:35.123Z,101787.69
2022-08-10T22:27:00.567Z,101788.56
2022-08-10T22:29:55.083Z,101784.56
2022-08-10T22:33:04.288Z,101781.33
2022-08-10T22:36:20.839Z,101783.95
2022-08-10T22:40:11.867Z,101783.46
2022-08-10T22:42:58.957Z,101786.65
2022-08-10T22:45:53.737Z,101788.30
2022-08-10T22:48:41.143Z,101785.40
2022-08-10T22:51:16.641Z,101789.90
2022-08-10T22:54:09.653Z,101790.70
2022-08-10T22:56:57.982Z,101789.69
2022-08-10T22:59:31.423Z,101792.23
2022-08-10T23:02:10.586Z,101794.81
2022-08-10T23:04:47.487Z,101790.60
2022-08-10T23:07:18.624Z,101796.43
2022-08-10T23:09:51.549Z,101800.05
2022-08-10T23:12:35.619Z,101796.96
2022-08-10T23:15:26.475Z,101795.43
2022-08-10T23:18:16.521Z,101797.89
2022-08-10T23:20:47.110Z,101801.64
2022-08-10T23:23:23.727Z,101799.13
2022-08-10T23:25:57.504Z,101799.91
2022-08-10T23:28:58.078Z,101806.96
2022-08-10T23:32:01.543Z,101810.81
2022-08-10T23:34:06.640Z,101810.44
2022-08-10T23:36:39.084Z,101808.13
2022-08-10T23:39:26.038Z,101804.64
2022-08-10T23:42:03.078Z,101801.77
2022-08-10T23:44:35.482Z,101804.73
2022-08-10T23:47:04.956Z,101804.88
2022-08-10T23:49:35.791Z,101815.94
2022-08-10T23:52:18.523Z,101815.56
2022-08-10T23:54:50.020Z,101814.94
2022-08-10T23:57:21.756Z,101812.27
2022-08-10T23:59:53.036Z,101815.46
